sensor_id;sensor_type;location;lat;lon;timestamp;P1;durP1;ratioP1;P2;durP2;ratioP2
1024;SDS011;501;48.214;11.350;2022-09-16T00:00:07;7.40;;;6.63;;
1024;SDS011;501;48.214;11.350;2022-09-16T00:02:34;9.03;;;6.10;;
1024;SDS011;501;48.214;11.350;2022-09-16T00:05:00;7.80;;;7.03;;
1024;SDS011;501;48.214;11.350;2022-09-16T00:07:25;8.10;;;7.30;;
1024;SDS011;501;48.214;11.350;2022-09-16T00:09:52;8.57;;;6.47;;
1024;SDS011;501;48.214;11.350;2022-09-16T00:12:18;7.70;;;6.60;;
1024;SDS011;501;48.214;11.350;2022-09-16T00:14:44;7.20;;;6.50;;
1024;SDS011;501;48.214;11.350;2022-09-16T00:17:09;6.83;;;6.07;;
1024;SDS011;501;48.214;11.350;2022-09-16T00:19:35;6.67;;;6.00;;
1024;SDS011;501;48.214;11.350;2022-09-16T00:22:00;7.70;;;6.90;;
1024;SDS011;501;48.214;11.350;2022-09-16T00:24:26;6.87;;;6.27;;
1024;SDS011;501;48.214;11.350;2022-09-16T00:26:52;6.83;;;6.13;;
1024;SDS011;501;48.214;11.350;2022-09-16T00:29:17;8.20;;;6.20;;
1024;SDS011;501;48.214;11.350;2022-09-16T00:31:43;6.57;;;5.90;;
1024;SDS011;501;48.214;11.350;2022-09-16T00:34:09;7.40;;;6.57;;
1024;SDS011;501;48.214;11.350;2022-09-16T00:36:34;8.57;;;6.67;;
1024;SDS011;501;48.214;11.350;2022-09-16T00:39:00;7.80;;;6.07;;
1024;SDS011;501;48.214;11.350;2022-09-16T00:41:26;6.83;;;6.03;;
1024;SDS011;501;48.214;11.350;2022-09-16T00:49:37;7.07;;;5.87;;
1024;SDS011;501;48.214;11.350;2022-09-16T00:51:56;8.50;;;6.27;;
1024;SDS011;501;48.214;11.350;2022-09-16T00:54:26;6.90;;;6.27;;
1024;SDS011;501;48.214;11.350;2022-09-16T00:56:54;7.17;;;6.47;;
1024;SDS011;501;48.214;11.350;2022-09-16T00:59:23;6.57;;;5.97;;
1024;SDS011;501;48.214;11.350;2022-09-16T01:01:59;6.60;;;6.00;;
1024;SDS011;501;48.214;11.350;2022-09-16T01:04:42;7.23;;;6.63;;
1024;SDS011;501;48.214;11.350;2022-09-16T01:07:09;9.43;;;6.30;;
1024;SDS011;501;48.214;11.350;2022-09-16T01:09:35;8.20;;;6.37;;
1024;SDS011;501;48.214;11.350;2022-09-16T01:12:02;9.70;;;6.93;;
1024;SDS011;501;48.214;11.350;2022-09-16T01:14:28;7.10;;;6.40;;
1024;SDS011;501;48.214;11.350;2022-09-16T01:25:44;6.80;;;6.20;;
1024;SDS011;501;48.214;11.350;2022-09-16T01:37:02;6.67;;;5.73;;
1024;SDS011;501;48.214;11.350;2022-09-16T01:42:35;6.77;;;6.17;;
1024;SDS011;501;48.214;11.350;2022-09-16T01:45:15;6.70;;;6.00;;
1024;SDS011;501;48.214;11.350;2022-09-16T01:53:04;6.93;;;6.03;;
1024;SDS011;501;48.214;11.350;2022-09-16T01:58:00;6.73;;;6.00;;
1024;SDS011;501;48.214;11.350;2022-09-16T02:00:38;5.60;;;5.10;;
1024;SDS011;501;48.214;11.350;2022-09-16T02:03:28;6.03;;;5.43;;
1024;SDS011;501;48.214;11.350;2022-09-16T02:05:56;6.80;;;6.10;;
1024;SDS011;501;48.214;11.350;2022-09-16T02:08:33;7.47;;;6.50;;
1024;SDS011;501;48.214;11.350;2022-09-16T02:11:04;8.63;;;6.07;;
1024;SDS011;501;48.214;11.350;2022-09-16T02:13:38;7.43;;;5.60;;
1024;SDS011;501;48.214;11.350;2022-09-16T02:16:19;6.50;;;5.87;;
1024;SDS011;501;48.214;11.350;2022-09-16T02:18:53;5.50;;;5.07;;
1024;SDS011;501;48.214;11.350;2022-09-16T02:21:22;6.10;;;5.50;;
1024;SDS011;501;48.214;11.350;2022-09-16T02:23:53;5.83;;;5.20;;
1024;SDS011;501;48.214;11.350;2022-09-16T02:26:27;6.47;;;5.50;;
1024;SDS011;501;48.214;11.350;2022-09-16T02:28:57;7.80;;;5.93;;
1024;SDS011;501;48.214;11.350;2022-09-16T02:31:25;6.60;;;6.00;;
1024;SDS011;501;48.214;11.350;2022-09-16T02:34:05;7.03;;;6.13;;
1024;SDS011;501;48.214;11.350;2022-09-16T02:36:35;6.03;;;5.47;;
1024;SDS011;501;48.214;11.350;2022-09-16T02:39:07;8.13;;;6.60;;
1024;SDS011;501;48.214;11.350;2022-09-16T02:41:37;8.53;;;7.73;;
1024;SDS011;501;48.214;11.350;2022-09-16T02:44:04;8.70;;;7.57;;
1024;SDS011;501;48.214;11.350;2022-09-16T02:46:35;7.67;;;6.90;;
1024;SDS011;501;48.214;11.350;2022-09-16T02:51:51;8.10;;;7.00;;
1024;SDS011;501;48.214;11.350;2022-09-16T02:54:27;9.03;;;6.93;;
1024;SDS011;501;48.214;11.350;2022-09-16T02:57:14;7.27;;;6.60;;
1024;SDS011;501;48.214;11.350;2022-09-16T02:59:40;9.03;;;6.97;;
1024;SDS011;501;48.214;11.350;2022-09-16T03:02:06;5.83;;;5.23;;
1024;SDS011;501;48.214;11.350;2022-09-16T03:04:37;7.77;;;6.97;;
1024;SDS011;501;48.214;11.350;2022-09-16T03:07:03;8.20;;;6.90;;
1024;SDS011;501;48.214;11.350;2022-09-16T03:09:32;11.60;;;7.10;;
1024;SDS011;501;48.214;11.350;2022-09-16T03:12:05;7.33;;;6.63;;
1024;SDS011;501;48.214;11.350;2022-09-16T03:17:25;8.13;;;7.30;;
1024;SDS011;501;48.214;11.350;2022-09-16T03:27:51;8.77;;;7.03;;
1024;SDS011;501;48.214;11.350;2022-09-16T03:30:43;7.90;;;7.17;;
1024;SDS011;501;48.214;11.350;2022-09-16T03:33:24;8.90;;;6.67;;
1024;SDS011;501;48.214;11.350;2022-09-16T03:35:58;7.67;;;6.90;;
1024;SDS011;501;48.214;11.350;2022-09-16T03:38:29;9.33;;;6.63;;
1024;SDS011;501;48.214;11.350;2022-09-16T03:40:57;8.10;;;7.30;;
1024;SDS011;501;48.214;11.350;2022-09-16T03:43:23;8.23;;;7.03;;
1024;SDS011;501;48.214;11.350;2022-09-16T03:45:49;8.00;;;6.97;;
1024;SDS011;501;48.214;11.350;2022-09-16T03:48:15;9.50;;;7.07;;
1024;SDS011;501;48.214;11.350;2022-09-16T03:50:41;8.00;;;7.20;;
1024;SDS011;501;48.214;11.350;2022-09-16T03:53:07;8.40;;;7.60;;
1024;SDS011;501;48.214;11.350;2022-09-16T03:55:32;8.60;;;7.03;;
1024;SDS011;501;48.214;11.350;2022-09-16T03:57:58;8.50;;;7.70;;
1024;SDS011;501;48.214;11.350;2022-09-16T04:00:25;15.03;;;8.33;;
1024;SDS011;501;48.214;11.350;2022-09-16T04:02:52;10.00;;;9.00;;
1024;SDS011;501;48.214;11.350;2022-09-16T04:05:18;9.70;;;8.90;;
1024;SDS011;501;48.214;11.350;2022-09-16T04:07:44;10.77;;;8.80;;
1024;SDS011;501;48.214;11.350;2022-09-16T04:10:09;11.77;;;9.27;;
1024;SDS011;501;48.214;11.350;2022-09-16T04:12:36;13.47;;;10.00;;
1024;SDS011;501;48.214;11.350;2022-09-16T04:15:02;11.93;;;8.40;;
1024;SDS011;501;48.214;11.350;2022-09-16T04:17:30;13.20;;;10.13;;
1024;SDS011;501;48.214;11.350;2022-09-16T04:19:56;9.73;;;8.73;;
1024;SDS011;501;48.214;11.350;2022-09-16T04:22:22;10.40;;;8.83;;
1024;SDS011;501;48.214;11.350;2022-09-16T04:24:48;10.20;;;9.10;;
1024;SDS011;501;48.214;11.350;2022-09-16T04:27:13;9.80;;;8.10;;
1024;SDS011;501;48.214;11.350;2022-09-16T04:29:39;10.37;;;9.27;;
1024;SDS011;501;48.214;11.350;2022-09-16T04:32:04;11.37;;;9.17;;
1024;SDS011;501;48.214;11.350;2022-09-16T04:34:30;10.83;;;9.00;;
1024;SDS011;501;48.214;11.350;2022-09-16T04:36:57;12.30;;;9.00;;
1024;SDS011;501;48.214;11.350;2022-09-16T04:39:22;12.70;;;9.00;;
1024;SDS011;501;48.214;11.350;2022-09-16T04:41:48;11.10;;;9.40;;
1024;SDS011;501;48.214;11.350;2022-09-16T04:44:14;11.70;;;9.80;;
1024;SDS011;501;48.214;11.350;2022-09-16T04:46:39;10.30;;;9.20;;
1024;SDS011;501;48.214;11.350;2022-09-16T04:49:05;15.20;;;8.90;;
1024;SDS011;501;48.214;11.350;2022-09-16T04:51:31;11.93;;;9.23;;
1024;SDS011;501;48.214;11.350;2022-09-16T04:53:57;10.43;;;9.33;;
1024;SDS011;501;48.214;11.350;2022-09-16T04:56:25;10.73;;;9.63;;
1024;SDS011;501;48.214;11.350;2022-09-16T04:58:53;9.33;;;8.37;;
1024;SDS011;501;48.214;11.350;2022-09-16T05:01:23;9.83;;;8.93;;
1024;SDS011;501;48.214;11.350;2022-09-16T05:03:51;10.17;;;9.17;;
1024;SDS011;501;48.214;11.350;2022-09-16T05:06:20;10.53;;;9.50;;
1024;SDS011;501;48.214;11.350;2022-09-16T05:09:07;13.40;;;10.43;;
1024;SDS011;501;48.214;11.350;2022-09-16T05:11:35;15.17;;;9.23;;
1024;SDS011;501;48.214;11.350;2022-09-16T05:14:04;11.30;;;9.33;;
1024;SDS011;501;48.214;11.350;2022-09-16T05:16:31;9.90;;;9.00;;
1024;SDS011;501;48.214;11.350;2022-09-16T05:18:58;10.80;;;9.80;;
1024;SDS011;501;48.214;11.350;2022-09-16T05:21:25;14.23;;;9.83;;
1024;SDS011;501;48.214;11.350;2022-09-16T05:23:52;10.40;;;8.83;;
1024;SDS011;501;48.214;11.350;2022-09-16T05:26:20;10.20;;;9.20;;
1024;SDS011;501;48.214;11.350;2022-09-16T05:28:48;11.47;;;9.53;;
1024;SDS011;501;48.214;11.350;2022-09-16T05:33:43;10.37;;;9.27;;
1024;SDS011;501;48.214;11.350;2022-09-16T05:36:15;14.20;;;10.57;;
1024;SDS011;501;48.214;11.350;2022-09-16T05:38:42;10.87;;;9.40;;
1024;SDS011;501;48.214;11.350;2022-09-16T05:41:08;14.67;;;10.00;;
1024;SDS011;501;48.214;11.350;2022-09-16T05:43:34;10.70;;;9.20;;
1024;SDS011;501;48.214;11.350;2022-09-16T05:46:01;11.13;;;10.00;;
1024;SDS011;501;48.214;11.350;2022-09-16T05:48:27;10.90;;;9.83;;
1024;SDS011;501;48.214;11.350;2022-09-16T05:51:00;12.70;;;9.97;;
1024;SDS011;501;48.214;11.350;2022-09-16T05:53:28;11.17;;;9.97;;
1024;SDS011;501;48.214;11.350;2022-09-16T05:55:56;13.20;;;10.57;;
1024;SDS011;501;48.214;11.350;2022-09-16T05:58:26;16.67;;;11.10;;
1024;SDS011;501;48.214;11.350;2022-09-16T06:00:59;14.17;;;11.50;;
1024;SDS011;501;48.214;11.350;2022-09-16T06:03:27;10.60;;;9.50;;
1024;SDS011;501;48.214;11.350;2022-09-16T06:06:06;13.10;;;10.17;;
1024;SDS011;501;48.214;11.350;2022-09-16T06:08:33;11.27;;;9.83;;
1024;SDS011;501;48.214;11.350;2022-09-16T06:11:01;11.83;;;10.17;;
1024;SDS011;501;48.214;11.350;2022-09-16T06:13:28;12.03;;;10.67;;
1024;SDS011;501;48.214;11.350;2022-09-16T06:15:54;10.10;;;9.20;;
1024;SDS011;501;48.214;11.350;2022-09-16T06:18:21;11.90;;;9.73;;
1024;SDS011;501;48.214;11.350;2022-09-16T06:20:48;10.60;;;9.50;;
1024;SDS011;501;48.214;11.350;2022-09-16T06:23:14;12.93;;;9.40;;
1024;SDS011;501;48.214;11.350;2022-09-16T06:25:40;10.73;;;9.33;;
1024;SDS011;501;48.214;11.350;2022-09-16T06:28:06;13.83;;;10.47;;
1024;SDS011;501;48.214;11.350;2022-09-16T06:30:33;12.03;;;9.63;;
1024;SDS011;501;48.214;11.350;2022-09-16T06:32:59;10.00;;;9.00;;
1024;SDS011;501;48.214;11.350;2022-09-16T06:35:25;13.40;;;10.37;;
1024;SDS011;501;48.214;11.350;2022-09-16T06:37:52;11.40;;;9.40;;
1024;SDS011;501;48.214;11.350;2022-09-16T06:40:18;12.83;;;10.70;;
1024;SDS011;501;48.214;11.350;2022-09-16T06:42:43;14.40;;;10.33;;
1024;SDS011;501;48.214;11.350;2022-09-16T06:45:09;10.80;;;9.70;;
1024;SDS011;501;48.214;11.350;2022-09-16T06:47:35;12.77;;;9.73;;
1024;SDS011;501;48.214;11.350;2022-09-16T06:50:01;14.63;;;10.10;;
1024;SDS011;501;48.214;11.350;2022-09-16T06:52:28;11.03;;;9.03;;
1024;SDS011;501;48.214;11.350;2022-09-16T06:54:54;10.50;;;9.43;;
1024;SDS011;501;48.214;11.350;2022-09-16T06:57:20;9.77;;;8.73;;
1024;SDS011;501;48.214;11.350;2022-09-16T06:59:50;10.67;;;9.60;;
1024;SDS011;501;48.214;11.350;2022-09-16T07:02:16;12.70;;;9.47;;
1024;SDS011;501;48.214;11.350;2022-09-16T07:04:43;10.07;;;9.00;;
1024;SDS011;501;48.214;11.350;2022-09-16T07:07:09;13.07;;;9.90;;
1024;SDS011;501;48.214;11.350;2022-09-16T07:09:35;14.00;;;9.20;;
1024;SDS011;501;48.214;11.350;2022-09-16T07:12:00;13.53;;;9.13;;
1024;SDS011;501;48.214;11.350;2022-09-16T07:14:27;10.43;;;9.40;;
1024;SDS011;501;48.214;11.350;2022-09-16T07:16:53;9.40;;;8.23;;
1024;SDS011;501;48.214;11.350;2022-09-16T07:19:18;11.40;;;9.47;;
1024;SDS011;501;48.214;11.350;2022-09-16T07:21:44;10.87;;;9.20;;
1024;SDS011;501;48.214;11.350;2022-09-16T07:24:11;11.00;;;9.90;;
1024;SDS011;501;48.214;11.350;2022-09-16T07:26:38;10.87;;;8.90;;
1024;SDS011;501;48.214;11.350;2022-09-16T07:29:05;14.20;;;9.17;;
1024;SDS011;501;48.214;11.350;2022-09-16T07:31:34;12.33;;;10.47;;
1024;SDS011;501;48.214;11.350;2022-09-16T07:34:01;12.80;;;9.67;;
1024;SDS011;501;48.214;11.350;2022-09-16T07:36:30;9.87;;;8.83;;
1024;SDS011;501;48.214;11.350;2022-09-16T07:39:00;11.23;;;9.27;;
1024;SDS011;501;48.214;11.350;2022-09-16T07:41:28;12.93;;;10.00;;
1024;SDS011;501;48.214;11.350;2022-09-16T07:43:57;12.30;;;9.83;;
1024;SDS011;501;48.214;11.350;2022-09-16T07:46:24;12.10;;;9.17;;
1024;SDS011;501;48.214;11.350;2022-09-16T07:48:51;11.60;;;9.37;;
1024;SDS011;501;48.214;11.350;2022-09-16T07:51:19;10.83;;;9.70;;
1024;SDS011;501;48.214;11.350;2022-09-16T07:53:52;12.10;;;9.57;;
1024;SDS011;501;48.214;11.350;2022-09-16T07:56:23;12.50;;;11.30;;
1024;SDS011;501;48.214;11.350;2022-09-16T07:58:50;13.80;;;9.73;;
1024;SDS011;501;48.214;11.350;2022-09-16T08:01:17;12.47;;;10.33;;
1024;SDS011;501;48.214;11.350;2022-09-16T08:03:43;15.93;;;9.47;;
1024;SDS011;501;48.214;11.350;2022-09-16T08:06:10;12.17;;;9.67;;
1024;SDS011;501;48.214;11.350;2022-09-16T08:08:37;11.00;;;9.73;;
1024;SDS011;501;48.214;11.350;2022-09-16T08:11:03;14.67;;;10.23;;
1024;SDS011;501;48.214;11.350;2022-09-16T08:13:30;10.50;;;9.40;;
1024;SDS011;501;48.214;11.350;2022-09-16T08:16:01;13.20;;;8.60;;
1024;SDS011;501;48.214;11.350;2022-09-16T08:18:28;12.03;;;10.03;;
1024;SDS011;501;48.214;11.350;2022-09-16T08:20:54;14.03;;;10.00;;
1024;SDS011;501;48.214;11.350;2022-09-16T08:23:20;10.50;;;9.30;;
1024;SDS011;501;48.214;11.350;2022-09-16T08:25:45;10.50;;;9.40;;
1024;SDS011;501;48.214;11.350;2022-09-16T08:28:14;11.37;;;9.73;;
1024;SDS011;501;48.214;11.350;2022-09-16T08:30:41;16.13;;;10.47;;
1024;SDS011;501;48.214;11.350;2022-09-16T08:33:08;12.50;;;10.00;;
1024;SDS011;501;48.214;11.350;2022-09-16T08:35:34;13.73;;;9.77;;
1024;SDS011;501;48.214;11.350;2022-09-16T08:37:59;10.30;;;8.83;;
1024;SDS011;501;48.214;11.350;2022-09-16T08:40:25;12.73;;;9.50;;
1024;SDS011;501;48.214;11.350;2022-09-16T08:45:24;12.13;;;9.80;;
1024;SDS011;501;48.214;11.350;2022-09-16T08:51:14;10.87;;;9.70;;
1024;SDS011;501;48.214;11.350;2022-09-16T08:56:13;11.23;;;10.10;;
1024;SDS011;501;48.214;11.350;2022-09-16T08:58:42;14.60;;;10.30;;
1024;SDS011;501;48.214;11.350;2022-09-16T09:03:52;15.20;;;9.87;;
1024;SDS011;501;48.214;11.350;2022-09-16T09:11:22;12.57;;;9.50;;
1024;SDS011;501;48.214;11.350;2022-09-16T09:14:09;11.83;;;9.80;;
1024;SDS011;501;48.214;11.350;2022-09-16T09:17:21;11.93;;;8.50;;
1024;SDS011;501;48.214;11.350;2022-09-16T09:23:01;11.03;;;9.83;;
1024;SDS011;501;48.214;11.350;2022-09-16T09:25:58;10.80;;;9.80;;
1024;SDS011;501;48.214;11.350;2022-09-16T09:28:40;11.83;;;9.20;;
1024;SDS011;501;48.214;11.350;2022-09-16T09:37:10;16.43;;;10.43;;
1024;SDS011;501;48.214;11.350;2022-09-16T09:39:48;14.13;;;10.93;;
1024;SDS011;501;48.214;11.350;2022-09-16T09:42:28;13.40;;;10.50;;
1024;SDS011;501;48.214;11.350;2022-09-16T09:47:30;12.73;;;11.50;;
1024;SDS011;501;48.214;11.350;2022-09-16T09:50:10;12.30;;;10.73;;
1024;SDS011;501;48.214;11.350;2022-09-16T09:53:05;14.20;;;10.67;;
1024;SDS011;501;48.214;11.350;2022-09-16T09:55:36;12.20;;;10.20;;
1024;SDS011;501;48.214;11.350;2022-09-16T09:58:18;10.50;;;9.50;;
1024;SDS011;501;48.214;11.350;2022-09-16T10:00:50;14.67;;;9.87;;
1024;SDS011;501;48.214;11.350;2022-09-16T10:03:21;10.10;;;9.10;;
1024;SDS011;501;48.214;11.350;2022-09-16T10:05:50;10.70;;;9.60;;
1024;SDS011;501;48.214;11.350;2022-09-16T10:08:17;14.43;;;10.20;;
1024;SDS011;501;48.214;11.350;2022-09-16T10:10:59;11.80;;;9.80;;
1024;SDS011;501;48.214;11.350;2022-09-16T10:13:26;12.63;;;10.30;;
1024;SDS011;501;48.214;11.350;2022-09-16T10:16:06;11.40;;;10.23;;
1024;SDS011;501;48.214;11.350;2022-09-16T10:18:34;10.90;;;9.80;;
1024;SDS011;501;48.214;11.350;2022-09-16T10:23:32;12.70;;;8.80;;
1024;SDS011;501;48.214;11.350;2022-09-16T10:26:03;11.60;;;8.63;;
1024;SDS011;501;48.214;11.350;2022-09-16T10:28:30;8.37;;;7.50;;
1024;SDS011;501;48.214;11.350;2022-09-16T10:30:57;9.73;;;7.63;;
1024;SDS011;501;48.214;11.350;2022-09-16T10:33:28;7.53;;;6.83;;
1024;SDS011;501;48.214;11.350;2022-09-16T10:35:57;11.97;;;8.13;;
1024;SDS011;501;48.214;11.350;2022-09-16T10:38:32;8.97;;;6.97;;
1024;SDS011;501;48.214;11.350;2022-09-16T10:41:14;8.30;;;6.90;;
1024;SDS011;501;48.214;11.350;2022-09-16T10:44:24;8.10;;;7.30;;
1024;SDS011;501;48.214;11.350;2022-09-16T10:49:27;9.67;;;6.70;;
1024;SDS011;501;48.214;11.350;2022-09-16T10:52:17;10.57;;;7.07;;
1024;SDS011;501;48.214;11.350;2022-09-16T10:54:46;7.47;;;6.13;;
1024;SDS011;501;48.214;11.350;2022-09-16T10:57:28;7.33;;;5.37;;
1024;SDS011;501;48.214;11.350;2022-09-16T11:00:10;7.50;;;5.53;;
1024;SDS011;501;48.214;11.350;2022-09-16T11:19:25;10.03;;;5.10;;
1024;SDS011;501;48.214;11.350;2022-09-16T11:27:51;6.50;;;5.90;;
1024;SDS011;501;48.214;11.350;2022-09-16T11:30:32;6.77;;;6.10;;
1024;SDS011;501;48.214;11.350;2022-09-16T11:35:47;9.33;;;6.80;;
1024;SDS011;501;48.214;11.350;2022-09-16T11:41:54;9.40;;;7.80;;
1024;SDS011;501;48.214;11.350;2022-09-16T11:44:37;7.07;;;6.37;;
1024;SDS011;501;48.214;11.350;2022-09-16T11:55:44;9.97;;;6.30;;
1024;SDS011;501;48.214;11.350;2022-09-16T12:01:05;8.90;;;7.30;;
1024;SDS011;501;48.214;11.350;2022-09-16T12:10:11;5.63;;;4.90;;
1024;SDS011;501;48.214;11.350;2022-09-16T12:12:18;7.30;;;5.23;;
1024;SDS011;501;48.214;11.350;2022-09-16T12:14:53;6.27;;;5.03;;
1024;SDS011;501;48.214;11.350;2022-09-16T12:17:27;6.67;;;3.87;;
1024;SDS011;501;48.214;11.350;2022-09-16T12:19:58;5.80;;;4.53;;
1024;SDS011;501;48.214;11.350;2022-09-16T12:22:49;4.80;;;4.30;;
1024;SDS011;501;48.214;11.350;2022-09-16T12:25:27;4.43;;;3.53;;
1024;SDS011;501;48.214;11.350;2022-09-16T12:28:04;4.90;;;3.90;;
1024;SDS011;501;48.214;11.350;2022-09-16T12:30:52;5.83;;;3.87;;
1024;SDS011;501;48.214;11.350;2022-09-16T12:33:34;4.13;;;3.83;;
1024;SDS011;501;48.214;11.350;2022-09-16T12:36:07;4.57;;;4.17;;
1024;SDS011;501;48.214;11.350;2022-09-16T12:38:36;5.47;;;3.93;;
1024;SDS011;501;48.214;11.350;2022-09-16T12:41:30;4.63;;;4.13;;
1024;SDS011;501;48.214;11.350;2022-09-16T12:47:11;5.13;;;4.63;;
1024;SDS011;501;48.214;11.350;2022-09-16T13:01:17;4.67;;;4.10;;
1024;SDS011;501;48.214;11.350;2022-09-16T13:03:56;5.10;;;3.97;;
1024;SDS011;501;48.214;11.350;2022-09-16T13:06:35;4.20;;;3.80;;
1024;SDS011;501;48.214;11.350;2022-09-16T13:12:17;4.13;;;3.73;;
1024;SDS011;501;48.214;11.350;2022-09-16T13:14:50;5.00;;;4.23;;
1024;SDS011;501;48.214;11.350;2022-09-16T13:17:28;4.97;;;4.47;;
1024;SDS011;501;48.214;11.350;2022-09-16T13:25:31;4.13;;;3.43;;
1024;SDS011;501;48.214;11.350;2022-09-16T13:30:32;4.83;;;4.30;;
1024;SDS011;501;48.214;11.350;2022-09-16T13:38:10;5.70;;;4.13;;
1024;SDS011;501;48.214;11.350;2022-09-16T13:40:38;5.03;;;4.37;;
1024;SDS011;501;48.214;11.350;2022-09-16T13:43:15;4.40;;;4.00;;
1024;SDS011;501;48.214;11.350;2022-09-16T13:45:44;4.30;;;3.90;;
1024;SDS011;501;48.214;11.350;2022-09-16T13:48:17;6.30;;;4.20;;
1024;SDS011;501;48.214;11.350;2022-09-16T13:50:50;4.33;;;3.93;;
1024;SDS011;501;48.214;11.350;2022-09-16T13:53:29;3.97;;;3.67;;
1024;SDS011;501;48.214;11.350;2022-09-16T13:56:08;5.37;;;4.27;;
1024;SDS011;501;48.214;11.350;2022-09-16T14:01:33;4.33;;;3.93;;
1024;SDS011;501;48.214;11.350;2022-09-16T14:11:47;3.40;;;3.10;;
1024;SDS011;501;48.214;11.350;2022-09-16T14:14:21;5.50;;;4.00;;
1024;SDS011;501;48.214;11.350;2022-09-16T14:16:49;5.33;;;4.80;;
1024;SDS011;501;48.214;11.350;2022-09-16T14:19:27;6.40;;;3.77;;
1024;SDS011;501;48.214;11.350;2022-09-16T14:22:04;6.40;;;4.20;;
1024;SDS011;501;48.214;11.350;2022-09-16T14:24:39;6.87;;;4.47;;
1024;SDS011;501;48.214;11.350;2022-09-16T14:27:17;6.80;;;4.80;;
1024;SDS011;501;48.214;11.350;2022-09-16T14:29:59;5.00;;;4.50;;
1024;SDS011;501;48.214;11.350;2022-09-16T14:32:30;5.37;;;4.87;;
1024;SDS011;501;48.214;11.350;2022-09-16T14:34:58;5.70;;;5.03;;
1024;SDS011;501;48.214;11.350;2022-09-16T14:37:28;6.73;;;4.23;;
1024;SDS011;501;48.214;11.350;2022-09-16T14:39:55;5.77;;;4.60;;
1024;SDS011;501;48.214;11.350;2022-09-16T14:42:28;5.77;;;5.20;;
1024;SDS011;501;48.214;11.350;2022-09-16T14:44:54;6.70;;;4.90;;
1024;SDS011;501;48.214;11.350;2022-09-16T14:50:10;5.70;;;5.20;;
1024;SDS011;501;48.214;11.350;2022-09-16T14:52:39;6.73;;;6.10;;
1024;SDS011;501;48.214;11.350;2022-09-16T14:55:17;5.70;;;5.20;;
1024;SDS011;501;48.214;11.350;2022-09-16T14:57:44;5.90;;;5.23;;
1024;SDS011;501;48.214;11.350;2022-09-16T15:00:14;5.70;;;5.17;;
1024;SDS011;501;48.214;11.350;2022-09-16T15:02:45;6.57;;;5.70;;
1024;SDS011;501;48.214;11.350;2022-09-16T15:05:26;7.03;;;4.90;;
1024;SDS011;501;48.214;11.350;2022-09-16T15:08:43;5.70;;;4.90;;
1024;SDS011;501;48.214;11.350;2022-09-16T15:10:46;7.47;;;5.53;;
1024;SDS011;501;48.214;11.350;2022-09-16T15:13:16;6.17;;;4.53;;
1024;SDS011;501;48.214;11.350;2022-09-16T15:15:47;11.47;;;5.07;;
1024;SDS011;501;48.214;11.350;2022-09-16T15:20:54;6.13;;;4.90;;
1024;SDS011;501;48.214;11.350;2022-09-16T15:23:29;7.00;;;5.40;;
1024;SDS011;501;48.214;11.350;2022-09-16T15:26:10;5.30;;;4.80;;
1024;SDS011;501;48.214;11.350;2022-09-16T15:28:55;4.97;;;4.53;;
1024;SDS011;501;48.214;11.350;2022-09-16T15:33:59;6.30;;;4.43;;
1024;SDS011;501;48.214;11.350;2022-09-16T15:36:39;5.10;;;4.60;;
1024;SDS011;501;48.214;11.350;2022-09-16T15:44:36;5.47;;;4.90;;
1024;SDS011;501;48.214;11.350;2022-09-16T15:47:14;6.60;;;4.67;;
1024;SDS011;501;48.214;11.350;2022-09-16T15:49:45;5.50;;;4.60;;
1024;SDS011;501;48.214;11.350;2022-09-16T15:52:15;5.07;;;4.63;;
1024;SDS011;501;48.214;11.350;2022-09-16T15:57:11;6.57;;;4.43;;
1024;SDS011;501;48.214;11.350;2022-09-16T15:59:53;4.50;;;4.10;;
1024;SDS011;501;48.214;11.350;2022-09-16T16:05:26;4.27;;;3.90;;
1024;SDS011;501;48.214;11.350;2022-09-16T16:07:58;6.80;;;5.23;;
1024;SDS011;501;48.214;11.350;2022-09-16T16:10:29;6.17;;;4.50;;
1024;SDS011;501;48.214;11.350;2022-09-16T16:12:56;5.17;;;4.00;;
1024;SDS011;501;48.214;11.350;2022-09-16T16:15:35;5.37;;;3.93;;
1024;SDS011;501;48.214;11.350;2022-09-16T16:18:04;4.20;;;3.90;;
1024;SDS011;501;48.214;11.350;2022-09-16T16:20:31;4.77;;;4.37;;
1024;SDS011;501;48.214;11.350;2022-09-16T16:22:58;5.63;;;4.57;;
1024;SDS011;501;48.214;11.350;2022-09-16T16:25:24;5.20;;;4.80;;
1024;SDS011;501;48.214;11.350;2022-09-16T16:27:50;5.50;;;5.00;;
1024;SDS011;501;48.214;11.350;2022-09-16T16:30:16;6.03;;;5.07;;
1024;SDS011;501;48.214;11.350;2022-09-16T16:32:41;6.30;;;4.50;;
1024;SDS011;501;48.214;11.350;2022-09-16T16:35:08;4.93;;;4.53;;
1024;SDS011;501;48.214;11.350;2022-09-16T16:37:34;6.27;;;5.07;;
1024;SDS011;501;48.214;11.350;2022-09-16T16:40:00;6.73;;;4.50;;
1024;SDS011;501;48.214;11.350;2022-09-16T16:42:27;5.73;;;5.23;;
1024;SDS011;501;48.214;11.350;2022-09-16T16:44:52;6.13;;;5.20;;
1024;SDS011;501;48.214;11.350;2022-09-16T16:47:18;6.20;;;5.40;;
1024;SDS011;501;48.214;11.350;2022-09-16T16:49:44;6.30;;;5.80;;
1024;SDS011;501;48.214;11.350;2022-09-16T16:52:10;5.93;;;4.83;;
1024;SDS011;501;48.214;11.350;2022-09-16T16:54:36;5.93;;;5.30;;
1024;SDS011;501;48.214;11.350;2022-09-16T16:57:02;6.20;;;5.33;;
1024;SDS011;501;48.214;11.350;2022-09-16T16:59:28;6.77;;;6.17;;
1024;SDS011;501;48.214;11.350;2022-09-16T17:01:54;6.17;;;5.57;;
1024;SDS011;501;48.214;11.350;2022-09-16T17:04:21;5.87;;;5.37;;
1024;SDS011;501;48.214;11.350;2022-09-16T17:06:47;6.80;;;6.10;;
1024;SDS011;501;48.214;11.350;2022-09-16T17:09:15;6.73;;;5.33;;
1024;SDS011;501;48.214;11.350;2022-09-16T17:11:54;7.57;;;6.20;;
1024;SDS011;501;48.214;11.350;2022-09-16T17:14:21;6.60;;;5.90;;
1024;SDS011;501;48.214;11.350;2022-09-16T17:16:51;7.30;;;6.60;;
1024;SDS011;501;48.214;11.350;2022-09-16T17:19:18;7.13;;;6.53;;
1024;SDS011;501;48.214;11.350;2022-09-16T17:21:45;6.30;;;5.67;;
1024;SDS011;501;48.214;11.350;2022-09-16T17:24:13;6.13;;;5.53;;
1024;SDS011;501;48.214;11.350;2022-09-16T17:26:40;5.63;;;5.00;;
1024;SDS011;501;48.214;11.350;2022-09-16T17:29:05;7.77;;;5.97;;
1024;SDS011;501;48.214;11.350;2022-09-16T17:31:34;6.93;;;6.20;;
1024;SDS011;501;48.214;11.350;2022-09-16T17:34:04;6.70;;;5.93;;
1024;SDS011;501;48.214;11.350;2022-09-16T17:36:31;10.30;;;5.90;;
1024;SDS011;501;48.214;11.350;2022-09-16T17:39:00;6.90;;;5.80;;
1024;SDS011;501;48.214;11.350;2022-09-16T17:41:28;5.67;;;4.90;;
1024;SDS011;501;48.214;11.350;2022-09-16T17:43:54;5.93;;;5.23;;
1024;SDS011;501;48.214;11.350;2022-09-16T17:46:21;6.27;;;5.40;;
1024;SDS011;501;48.214;11.350;2022-09-16T17:48:49;6.63;;;5.70;;
1024;SDS011;501;48.214;11.350;2022-09-16T17:51:15;7.40;;;6.10;;
1024;SDS011;501;48.214;11.350;2022-09-16T17:53:41;5.97;;;5.27;;
1024;SDS011;501;48.214;11.350;2022-09-16T17:56:09;6.23;;;5.40;;
1024;SDS011;501;48.214;11.350;2022-09-16T17:58:38;8.20;;;6.30;;
1024;SDS011;501;48.214;11.350;2022-09-16T18:01:09;6.53;;;5.73;;
1024;SDS011;501;48.214;11.350;2022-09-16T18:03:37;6.93;;;6.20;;
1024;SDS011;501;48.214;11.350;2022-09-16T18:06:05;7.70;;;5.40;;
1024;SDS011;501;48.214;11.350;2022-09-16T18:08:34;6.63;;;5.93;;
1024;SDS011;501;48.214;11.350;2022-09-16T18:11:01;6.60;;;6.00;;
1024;SDS011;501;48.214;11.350;2022-09-16T18:13:27;6.13;;;5.53;;
1024;SDS011;501;48.214;11.350;2022-09-16T18:15:53;8.00;;;6.20;;
1024;SDS011;501;48.214;11.350;2022-09-16T18:18:19;6.77;;;5.70;;
1024;SDS011;501;48.214;11.350;2022-09-16T18:20:50;8.00;;;7.20;;
1024;SDS011;501;48.214;11.350;2022-09-16T18:23:17;7.30;;;6.70;;
1024;SDS011;501;48.214;11.350;2022-09-16T18:25:43;10.23;;;7.37;;
1024;SDS011;501;48.214;11.350;2022-09-16T18:28:09;9.60;;;7.37;;
1024;SDS011;501;48.214;11.350;2022-09-16T18:30:34;7.97;;;6.90;;
1024;SDS011;501;48.214;11.350;2022-09-16T18:33:00;6.80;;;6.20;;
1024;SDS011;501;48.214;11.350;2022-09-16T18:35:25;7.20;;;6.50;;